createdAt,value
2023-02-05T00:01:16.700Z,3.52
2023-02-05T00:03:45.320Z,3.37
2023-02-05T00:06:14.005Z,2.56
2023-02-05T00:08:42.530Z,1.84
2023-02-05T00:11:11.029Z,1.29
2023-02-05T00:13:42.296Z,1.03
2023-02-05T00:16:13.725Z,1.56
2023-02-05T00:18:42.573Z,2.18
2023-02-05T00:21:12.532Z,2.66
2023-02-05T00:23:41.471Z,3.05
2023-02-05T00:26:14.572Z,3.37
2023-02-05T00:28:43.691Z,3.31
2023-02-05T00:31:18.426Z,2.49
2023-02-05T00:33:48.246Z,1.71
2023-02-05T00:36:18.544Z,1.25
2023-02-05T00:38:48.015Z,1.62
2023-02-05T00:41:17.673Z,2.20
2023-02-05T00:43:46.936Z,2.67
2023-02-05T00:46:15.924Z,3.04
2023-02-05T00:48:45.076Z,3.33
2023-02-05T00:51:13.626Z,3.52
2023-02-05T00:53:42.072Z,3.02
2023-02-05T00:56:10.763Z,2.18
2023-02-05T00:58:39.482Z,1.51
2023-02-05T01:01:08.185Z,1.00
2023-02-05T01:03:36.834Z,1.15
2023-02-05T01:06:06.879Z,1.78
2023-02-05T01:08:35.738Z,2.33
2023-02-05T01:11:09.061Z,2.73
2023-02-05T01:13:38.737Z,3.05
2023-02-05T01:16:08.431Z,3.32
2023-02-05T01:18:37.058Z,3.51
2023-02-05T01:21:06.298Z,2.96
2023-02-05T01:23:34.948Z,2.10
2023-02-05T01:26:03.407Z,1.40
2023-02-05T01:28:31.970Z,0.94
2023-02-05T01:31:00.556Z,1.27
2023-02-05T01:33:29.178Z,1.86
2023-02-05T01:35:57.591Z,2.34
2023-02-05T01:38:26.207Z,2.70
2023-02-05T01:40:54.638Z,2.99
2023-02-05T01:43:23.098Z,3.24
2023-02-05T01:46:06.043Z,3.38
2023-02-05T01:48:40.952Z,2.61
2023-02-05T01:51:12.321Z,1.74
2023-02-05T01:53:43.140Z,1.07
2023-02-05T01:56:31.185Z,0.95
2023-02-05T01:59:15.408Z,1.59
2023-02-05T02:01:44.729Z,2.15
2023-02-05T02:04:21.191Z,2.55
2023-02-05T02:06:49.734Z,2.85
2023-02-05T02:09:18.265Z,3.10
2023-02-05T02:11:47.008Z,3.32
2023-02-05T02:14:16.453Z,3.09
2023-02-05T02:16:45.200Z,2.21
2023-02-05T02:19:26.683Z,1.43
2023-02-05T02:22:25.431Z,0.78
2023-02-05T02:25:15.580Z,0.88
2023-02-05T02:27:55.009Z,1.54
2023-02-05T02:30:52.554Z,2.05
2023-02-05T02:33:29.158Z,2.47
2023-02-05T02:36:15.686Z,2.77
2023-02-05T02:39:08.451Z,3.01
2023-02-05T02:41:44.539Z,3.18
2023-02-05T02:44:19.709Z,2.61
2023-02-05T02:46:59.374Z,1.67
2023-02-05T02:49:34.533Z,0.90
2023-02-05T02:52:07.022Z,0.53
2023-02-05T02:54:37.452Z,0.97
2023-02-05T02:57:08.869Z,1.52
2023-02-05T02:59:41.011Z,1.94
2023-02-05T03:02:13.205Z,2.27
2023-02-05T03:04:46.833Z,2.56
2023-02-05T03:07:22.574Z,2.79
2023-02-05T03:09:57.003Z,3.00
2023-02-05T03:12:25.500Z,2.64
2023-02-05T03:14:54.499Z,1.73
2023-02-05T03:17:24.944Z,0.95
2023-02-05T03:20:03.246Z,0.35
2023-02-05T03:22:31.906Z,0.35
2023-02-05T03:25:02.767Z,0.93
2023-02-05T03:27:33.074Z,1.45
2023-02-05T03:30:02.702Z,1.84
2023-02-05T03:32:58.827Z,2.14
2023-02-05T03:35:43.621Z,2.39
2023-02-05T03:38:40.173Z,2.61
2023-02-05T03:41:21.085Z,2.41
2023-02-05T03:44:06.672Z,1.46
2023-02-05T03:47:09.893Z,0.59
2023-02-05T03:49:53.144Z,-0.15
2023-02-05T03:52:32.878Z,-0.06
2023-02-05T03:55:20.233Z,0.56
2023-02-05T03:58:09.138Z,1.09
2023-02-05T04:00:38.386Z,1.49
2023-02-05T04:03:07.444Z,1.79
2023-02-05T04:05:36.809Z,2.03
2023-02-05T04:08:06.038Z,2.24
2023-02-05T04:10:39.008Z,2.37
2023-02-05T04:13:07.630Z,1.78
2023-02-05T04:15:36.724Z,0.86
2023-02-05T04:18:08.567Z,0.11
2023-02-05T04:20:37.082Z,-0.40
2023-02-05T04:23:05.892Z,-0.11
2023-02-05T04:25:37.542Z,0.46
2023-02-05T04:28:08.447Z,0.92
2023-02-05T04:30:37.512Z,1.29
2023-02-05T04:33:06.217Z,1.58
2023-02-05T04:35:35.635Z,1.82
2023-02-05T04:38:04.615Z,2.03
2023-02-05T04:40:33.380Z,2.01
2023-02-05T04:43:01.875Z,1.19
2023-02-05T04:45:31.615Z,0.32
2023-02-05T04:48:01.008Z,-0.37
2023-02-05T04:50:29.446Z,-0.80
2023-02-05T04:52:58.024Z,-0.43
2023-02-05T04:55:26.586Z,0.15
2023-02-05T04:57:55.156Z,0.60
2023-02-05T05:00:24.424Z,0.93
2023-02-05T05:02:53.492Z,1.20
2023-02-05T05:05:22.186Z,1.40
2023-02-05T05:07:50.679Z,1.57
2023-02-05T05:10:19.332Z,1.16
2023-02-05T05:12:47.785Z,0.23
2023-02-05T05:15:17.013Z,-0.56
2023-02-05T05:17:45.445Z,-1.18
2023-02-05T05:20:13.923Z,-1.55
2023-02-05T05:22:42.373Z,-1.02
2023-02-05T05:25:11.010Z,-0.41
2023-02-05T05:27:39.458Z,0.07
2023-02-05T05:30:08.934Z,0.43
2023-02-05T05:32:37.446Z,0.73
2023-02-05T05:35:06.731Z,1.00
2023-02-05T05:37:35.111Z,1.25
2023-02-05T05:40:22.235Z,1.46
2023-02-05T05:43:09.197Z,1.65
2023-02-05T05:45:37.624Z,1.83
2023-02-05T05:48:06.191Z,1.99
2023-02-05T05:50:34.730Z,1.75
2023-02-05T05:53:03.607Z,0.85
2023-02-05T05:55:32.251Z,0.05
2023-02-05T05:58:01.102Z,-0.55
2023-02-05T06:00:29.691Z,-0.50
2023-02-05T06:02:58.212Z,0.11
2023-02-05T06:05:27.363Z,0.66
2023-02-05T06:07:55.782Z,1.08
2023-02-05T06:10:24.871Z,1.41
2023-02-05T06:12:53.324Z,1.67
2023-02-05T06:15:22.449Z,1.90
2023-02-05T06:17:50.823Z,2.10
2023-02-05T06:20:19.476Z,1.76
2023-02-05T06:22:48.066Z,0.83
2023-02-05T06:25:16.605Z,0.03
2023-02-05T06:27:45.172Z,-0.59
2023-02-05T06:30:13.915Z,-0.62
2023-02-05T06:32:42.343Z,-0.04
2023-02-05T06:35:10.938Z,0.50
2023-02-05T06:37:47.030Z,0.92
2023-02-05T06:40:18.455Z,1.27
2023-02-05T06:42:47.125Z,1.56
2023-02-05T06:45:15.697Z,1.81
2023-02-05T06:47:44.298Z,2.02
2023-02-05T06:50:13.194Z,2.15
2023-02-05T06:52:41.641Z,1.51
2023-02-05T06:55:10.344Z,0.63
2023-02-05T06:57:38.787Z,-0.08
2023-02-05T07:00:08.536Z,-0.54
2023-02-05T07:02:37.213Z,-0.19
2023-02-05T07:05:06.416Z,0.43
2023-02-05T07:07:35.279Z,0.93
2023-02-05T07:10:04.653Z,1.32
2023-02-05T07:12:33.214Z,1.65
2023-02-05T07:15:01.712Z,1.93
2023-02-05T07:17:30.163Z,2.20
2023-02-05T07:19:59.093Z,2.40
2023-02-05T07:22:27.736Z,1.88
2023-02-05T07:24:56.249Z,1.02
2023-02-05T07:27:24.842Z,0.33
2023-02-05T07:29:53.547Z,-0.23
2023-02-05T07:32:22.049Z,-0.33
2023-02-05T07:34:50.600Z,0.26
2023-02-05T07:37:21.279Z,0.86
2023-02-05T07:39:50.067Z,1.37
2023-02-05T07:42:18.604Z,1.81
2023-02-05T07:44:50.712Z,2.21
2023-02-05T07:47:19.115Z,2.57
2023-02-05T07:49:47.623Z,2.92
2023-02-05T07:52:16.062Z,2.82
2023-02-05T07:54:44.511Z,2.08
2023-02-05T07:57:13.008Z,1.44
2023-02-05T07:59:41.425Z,0.96
2023-02-05T08:02:11.792Z,1.06
2023-02-05T08:04:40.483Z,1.78
2023-02-05T08:07:12.847Z,2.45
2023-02-05T08:09:41.510Z,3.00
2023-02-05T08:12:10.099Z,3.39
2023-02-05T08:14:38.534Z,3.42
2023-02-05T08:17:07.100Z,2.67
2023-02-05T08:19:35.676Z,2.01
2023-02-05T08:22:04.136Z,1.52
2023-02-05T08:24:32.913Z,1.35
2023-02-05T08:27:01.439Z,1.98
2023-02-05T08:29:29.900Z,2.68
2023-02-05T08:31:58.633Z,3.28
2023-02-05T08:34:27.144Z,3.77
2023-02-05T08:36:57.538Z,4.22
2023-02-05T08:39:26.403Z,4.08
2023-02-05T08:41:56.965Z,3.38
2023-02-05T08:44:25.820Z,2.82
2023-02-05T08:46:54.487Z,2.42
2023-02-05T08:49:22.917Z,2.12
2023-02-05T08:51:51.742Z,2.51
2023-02-05T08:54:20.817Z,3.29
2023-02-05T08:56:51.334Z,3.99
2023-02-05T08:59:20.730Z,4.57
2023-02-05T09:01:49.679Z,5.04
2023-02-05T09:04:22.459Z,4.73
2023-02-05T09:06:51.841Z,4.03
2023-02-05T09:09:20.923Z,3.53
2023-02-05T09:11:50.032Z,3.20
2023-02-05T09:14:19.847Z,3.49
2023-02-05T09:16:48.503Z,4.25
2023-02-05T09:19:16.937Z,4.94
2023-02-05T09:21:45.438Z,5.10
2023-02-05T09:24:13.823Z,4.56
2023-02-05T09:26:42.349Z,4.05
2023-02-05T09:29:10.795Z,3.68
2023-02-05T09:31:41.666Z,3.42
2023-02-05T09:34:10.462Z,3.73
2023-02-05T09:36:40.791Z,4.50
2023-02-05T09:39:18.507Z,5.16
2023-02-05T09:42:07.644Z,4.91
2023-02-05T09:44:51.252Z,4.38
2023-02-05T09:48:01.332Z,3.96
2023-02-05T09:50:31.128Z,3.58
2023-02-05T09:53:08.689Z,3.36
2023-02-05T09:55:41.719Z,3.14
2023-02-05T09:58:27.604Z,2.94
2023-02-05T10:01:06.786Z,2.77
2023-02-05T10:03:45.555Z,2.70
2023-02-05T10:06:27.248Z,3.35
2023-02-05T10:09:33.477Z,4.31
2023-02-05T10:12:10.705Z,5.17
2023-02-05T10:15:03.323Z,5.17
2023-02-05T10:17:52.926Z,4.55
2023-02-05T10:20:24.167Z,4.07
2023-02-05T10:23:14.879Z,3.80
2023-02-05T10:26:12.666Z,3.58
2023-02-05T10:29:01.602Z,3.43
2023-02-05T10:31:50.738Z,3.31
2023-02-05T10:34:49.031Z,3.24
2023-02-05T10:37:20.433Z,3.17
2023-02-05T10:39:49.913Z,3.10
2023-02-05T10:42:47.010Z,3.06
2023-02-05T10:45:21.686Z,3.04
2023-02-05T10:48:17.969Z,3.04
2023-02-05T10:51:05.610Z,3.03
2023-02-05T10:53:36.498Z,3.08
2023-02-05T10:56:06.326Z,3.17
2023-02-05T10:58:41.518Z,3.23
2023-02-05T11:01:18.949Z,3.30
2023-02-05T11:03:59.623Z,3.37
2023-02-05T11:06:32.948Z,3.48
2023-02-05T11:09:01.851Z,4.30
2023-02-05T11:11:32.377Z,5.21
2023-02-05T11:14:05.063Z,5.21
2023-02-05T11:16:41.531Z,4.98
2023-02-05T11:19:25.846Z,4.74
2023-02-05T11:22:00.417Z,4.54
2023-02-05T11:24:39.640Z,4.40
2023-02-05T11:27:30.949Z,4.28
2023-02-05T11:30:48.000Z,4.15
2023-02-05T11:33:23.375Z,4.01
2023-02-05T11:36:08.419Z,3.95
2023-02-05T11:38:43.240Z,4.11
2023-02-05T11:41:15.152Z,4.28
2023-02-05T11:43:50.954Z,4.39
2023-02-05T11:46:23.261Z,4.44
2023-02-05T11:49:05.318Z,4.41
2023-02-05T11:51:36.932Z,4.41
2023-02-05T11:54:20.760Z,4.35
2023-02-05T11:57:30.026Z,4.28
2023-02-05T11:59:58.452Z,4.24
2023-02-05T12:02:29.554Z,4.30
2023-02-05T12:05:24.677Z,4.49
2023-02-05T12:07:58.476Z,4.78
2023-02-05T12:10:51.738Z,5.04
2023-02-05T12:13:31.690Z,5.19
2023-02-05T12:16:26.470Z,5.44
2023-02-05T12:19:20.619Z,5.84
2023-02-05T12:21:51.836Z,6.28
2023-02-05T12:24:38.581Z,6.64
2023-02-05T12:27:47.537Z,7.01
2023-02-05T12:30:28.181Z,7.40
2023-02-05T12:33:30.699Z,7.53
2023-02-05T12:36:18.027Z,7.54
2023-02-05T12:39:44.734Z,7.47
2023-02-05T12:42:24.803Z,7.26
2023-02-05T12:45:23.311Z,6.93
2023-02-05T12:48:10.577Z,6.56
2023-02-05T12:51:03.745Z,6.28
2023-02-05T12:53:40.356Z,6.08
2023-02-05T12:56:11.785Z,5.99
2023-02-05T12:58:46.685Z,6.05
2023-02-05T13:01:21.608Z,6.14
2023-02-05T13:04:01.165Z,6.18
2023-02-05T13:06:37.873Z,6.27
2023-02-05T13:09:18.937Z,6.41
2023-02-05T13:11:56.989Z,6.67
2023-02-05T13:14:49.159Z,7.02
2023-02-05T13:17:22.780Z,7.55
2023-02-05T13:21:10.888Z,8.19
2023-02-05T13:24:01.810Z,9.39
2023-02-05T13:26:58.164Z,10.04
2023-02-05T13:29:35.459Z,10.56
2023-02-05T13:32:15.836Z,10.96
2023-02-05T13:34:44.949Z,11.06
2023-02-05T13:37:30.072Z,10.85
2023-02-05T13:40:19.679Z,10.51
2023-02-05T13:43:03.260Z,10.38
2023-02-05T13:45:59.957Z,10.58
2023-02-05T13:48:49.832Z,10.92
2023-02-05T13:51:56.368Z,11.18
2023-02-05T13:55:05.113Z,11.23
2023-02-05T13:57:33.507Z,10.74
2023-02-05T14:00:05.247Z,10.22
2023-02-05T14:02:49.722Z,9.66
2023-02-05T14:05:32.645Z,9.13
2023-02-05T14:08:03.451Z,8.58
2023-02-05T14:10:42.388Z,8.23
2023-02-05T14:13:19.787Z,8.37
2023-02-05T14:15:49.232Z,8.77
2023-02-05T14:18:40.240Z,9.29
2023-02-05T14:21:30.365Z,10.00
2023-02-05T14:24:00.287Z,10.69
2023-02-05T14:26:52.011Z,11.20
2023-02-05T14:29:49.921Z,11.73
2023-02-05T14:32:27.720Z,12.08
2023-02-05T14:35:26.402Z,12.22
2023-02-05T14:38:02.760Z,12.09
2023-02-05T14:40:36.023Z,11.69
2023-02-05T14:43:22.735Z,11.15
2023-02-05T14:45:53.318Z,10.49
2023-02-05T14:48:32.958Z,9.86
2023-02-05T14:51:19.429Z,9.24
2023-02-05T14:53:58.015Z,8.59
2023-02-05T14:56:35.023Z,8.02
2023-02-05T14:59:29.436Z,7.49
2023-02-05T15:02:00.116Z,6.95
2023-02-05T15:04:35.261Z,6.51
2023-02-05T15:07:18.388Z,6.08
2023-02-05T15:10:07.627Z,5.66
2023-02-05T15:12:55.264Z,5.23
2023-02-05T15:15:49.551Z,4.83
2023-02-05T15:18:27.738Z,4.44
2023-02-05T15:20:57.880Z,4.12
2023-02-05T15:23:46.677Z,3.82
2023-02-05T15:26:28.124Z,3.48
2023-02-05T15:29:03.644Z,3.16
2023-02-05T15:31:54.955Z,2.87
2023-02-05T15:34:35.270Z,2.56
2023-02-05T15:37:09.797Z,2.28
2023-02-05T15:39:51.793Z,2.00
2023-02-05T15:42:33.110Z,1.73
2023-02-05T15:45:45.152Z,1.46
2023-02-05T15:48:19.577Z,1.15
2023-02-05T15:50:52.253Z,0.91
2023-02-05T15:53:41.878Z,0.68
2023-02-05T15:56:27.653Z,0.45
2023-02-05T15:59:01.173Z,0.23
2023-02-05T16:01:34.470Z,0.02
2023-02-05T16:04:21.063Z,-0.18
2023-02-05T16:06:50.215Z,-0.05
2023-02-05T16:09:21.149Z,0.78
2023-02-05T16:11:50.582Z,1.56
2023-02-05T16:14:28.666Z,2.18
2023-02-05T16:17:11.329Z,2.68
2023-02-05T16:19:48.504Z,2.73
2023-02-05T16:22:24.425Z,1.99
2023-02-05T16:24:58.461Z,1.36
2023-02-05T16:27:38.060Z,0.88
2023-02-05T16:30:17.486Z,0.50
2023-02-05T16:32:48.519Z,0.17
2023-02-05T16:35:27.143Z,-0.12
2023-02-05T16:37:57.414Z,-0.38
2023-02-05T16:40:46.829Z,-0.24
2023-02-05T16:43:38.403Z,0.62
2023-02-05T16:46:06.984Z,1.42
2023-02-05T16:48:38.985Z,1.99
2023-02-05T16:51:34.208Z,2.46
2023-02-05T16:54:25.995Z,2.86
2023-02-05T16:57:06.755Z,2.40
2023-02-05T17:00:19.253Z,1.60
2023-02-05T17:02:47.792Z,0.88
2023-02-05T17:05:26.992Z,0.48
2023-02-05T17:08:10.306Z,0.11
2023-02-05T17:10:54.219Z,0.10
2023-02-05T17:13:49.313Z,0.87
2023-02-05T17:16:27.495Z,1.65
2023-02-05T17:19:01.090Z,2.20
2023-02-05T17:21:34.669Z,2.65
2023-02-05T17:24:09.287Z,2.98
2023-02-05T17:26:41.161Z,2.54
2023-02-05T17:29:16.018Z,1.73
2023-02-05T17:31:44.619Z,1.08
2023-02-05T17:34:13.349Z,0.60
2023-02-05T17:36:41.835Z,0.20
2023-02-05T17:39:10.361Z,-0.05
2023-02-05T17:41:57.299Z,0.47
2023-02-05T17:44:25.743Z,1.23
2023-02-05T17:46:54.372Z,1.81
2023-02-05T17:49:23.177Z,2.26
2023-02-05T17:51:51.715Z,2.62
2023-02-05T17:54:23.269Z,2.88
2023-02-05T17:56:57.021Z,2.36
2023-02-05T17:59:26.303Z,1.54
2023-02-05T18:01:54.795Z,0.92
2023-02-05T18:04:23.306Z,0.43
2023-02-05T18:06:52.084Z,0.01
2023-02-05T18:09:20.650Z,-0.17
2023-02-05T18:11:49.451Z,0.40
2023-02-05T18:14:18.027Z,1.07
2023-02-05T18:16:46.801Z,1.62
2023-02-05T18:19:15.306Z,2.06
2023-02-05T18:21:46.406Z,2.44
2023-02-05T18:24:15.375Z,2.75
2023-02-05T18:26:44.230Z,2.65
2023-02-05T18:29:12.687Z,1.83
2023-02-05T18:31:41.190Z,1.10
2023-02-05T18:34:09.903Z,0.52
2023-02-05T18:36:38.451Z,0.05
2023-02-05T18:39:06.987Z,-0.33
2023-02-05T18:41:35.580Z,-0.03
2023-02-05T18:44:04.202Z,0.64
2023-02-05T18:46:32.607Z,1.21
2023-02-05T18:49:01.407Z,1.67
2023-02-05T18:51:29.946Z,2.03
2023-02-05T18:53:59.133Z,2.35
2023-02-05T18:56:30.097Z,2.62
2023-02-05T18:59:03.269Z,2.45
2023-02-05T19:01:38.475Z,1.57
2023-02-05T19:04:10.251Z,0.80
2023-02-05T19:06:42.066Z,0.21
2023-02-05T19:09:11.597Z,0.07
2023-02-05T19:11:41.767Z,0.65
2023-02-05T19:14:16.765Z,1.22
2023-02-05T19:16:45.692Z,1.67
2023-02-05T19:19:21.244Z,2.02
2023-02-05T19:21:54.960Z,2.33
2023-02-05T19:24:23.840Z,2.55
2023-02-05T19:26:56.687Z,2.05
2023-02-05T19:29:26.506Z,1.19
2023-02-05T19:31:55.136Z,0.52
2023-02-05T19:34:24.282Z,-0.00
2023-02-05T19:36:52.710Z,-0.30
2023-02-05T19:39:21.145Z,0.17
2023-02-05T19:41:51.582Z,0.78
2023-02-05T19:44:20.492Z,1.28
2023-02-05T19:46:49.045Z,1.68
2023-02-05T19:49:22.230Z,2.00
2023-02-05T19:51:54.623Z,2.27
2023-02-05T19:54:24.086Z,2.51
2023-02-05T19:56:52.816Z,2.23
2023-02-05T19:59:21.475Z,1.38
2023-02-05T20:01:50.258Z,0.67
2023-02-05T20:04:22.683Z,0.12
2023-02-05T20:06:56.351Z,-0.18
2023-02-05T20:09:26.342Z,0.34
2023-02-05T20:11:55.973Z,0.94
2023-02-05T20:14:25.065Z,1.43
2023-02-05T20:16:54.105Z,1.84
2023-02-05T20:19:22.625Z,2.17
2023-02-05T20:21:51.458Z,2.44
2023-02-05T20:24:19.933Z,2.67
2023-02-05T20:26:48.740Z,2.34
2023-02-05T20:29:36.355Z,1.51
2023-02-05T20:32:05.843Z,0.72
2023-02-05T20:34:36.353Z,0.18
2023-02-05T20:37:09.284Z,0.12
2023-02-05T20:39:42.847Z,0.73
2023-02-05T20:42:15.418Z,1.29
2023-02-05T20:44:44.582Z,1.71
2023-02-05T20:47:14.759Z,2.06
2023-02-05T20:49:43.739Z,2.33
2023-02-05T20:52:12.559Z,2.57
2023-02-05T20:54:41.195Z,2.67
2023-02-05T20:57:09.690Z,1.99
2023-02-05T20:59:38.861Z,1.12
2023-02-05T21:02:08.004Z,0.44
2023-02-05T21:04:37.809Z,-0.08
2023-02-05T21:07:06.388Z,0.12
2023-02-05T21:09:35.160Z,0.71
2023-02-05T21:12:03.789Z,1.20
2023-02-05T21:14:32.424Z,1.59
2023-02-05T21:17:00.889Z,1.89
2023-02-05T21:19:29.384Z,2.13
2023-02-05T21:21:57.981Z,2.34
2023-02-05T21:24:26.416Z,2.48
2023-02-05T21:26:54.924Z,1.93
2023-02-05T21:29:23.627Z,1.05
2023-02-05T21:31:55.977Z,0.34
2023-02-05T21:34:27.901Z,-0.21
2023-02-05T21:36:56.845Z,0.04
2023-02-05T21:39:25.769Z,0.62
2023-02-05T21:41:55.039Z,1.09
2023-02-05T21:44:24.450Z,1.46
2023-02-05T21:46:54.923Z,1.75
2023-02-05T21:49:23.333Z,2.01
2023-02-05T21:51:53.543Z,2.24
2023-02-05T21:54:25.917Z,2.01
2023-02-05T21:56:54.716Z,1.14
2023-02-05T21:59:23.825Z,0.41
2023-02-05T22:01:52.358Z,-0.16
2023-02-05T22:04:21.103Z,-0.40
2023-02-05T22:06:50.988Z,0.11
2023-02-05T22:09:19.554Z,0.69
2023-02-05T22:11:51.397Z,1.14
2023-02-05T22:14:19.935Z,1.51
2023-02-05T22:16:48.559Z,1.80
2023-02-05T22:19:17.077Z,2.04
2023-02-05T22:21:45.612Z,2.28
2023-02-05T22:24:16.387Z,2.49
2023-02-05T22:26:46.625Z,2.39
2023-02-05T22:29:18.493Z,1.58
2023-02-05T22:31:54.567Z,0.82
2023-02-05T22:34:23.350Z,0.23
2023-02-05T22:36:51.786Z,0.18
2023-02-05T22:39:20.364Z,0.77
2023-02-05T22:41:49.098Z,1.33
2023-02-05T22:44:17.642Z,1.76
2023-02-05T22:46:46.056Z,2.12
2023-02-05T22:49:17.503Z,2.43
2023-02-05T22:51:46.346Z,2.71
2023-02-05T22:54:15.524Z,2.55
2023-02-05T22:56:45.002Z,1.73
2023-02-05T22:59:13.750Z,1.03
2023-02-05T23:01:42.284Z,0.48
2023-02-05T23:04:11.325Z,0.04
2023-02-05T23:06:42.675Z,-0.07
2023-02-05T23:09:17.249Z,0.54
2023-02-05T23:11:46.606Z,1.17
2023-02-05T23:14:17.553Z,1.67
2023-02-05T23:16:47.500Z,2.05
2023-02-05T23:19:19.327Z,2.37
2023-02-05T23:21:48.247Z,2.60
2023-02-05T23:24:17.331Z,2.07
2023-02-05T23:26:48.256Z,1.30
2023-02-05T23:29:17.817Z,0.68
2023-02-05T23:31:46.800Z,0.19
2023-02-05T23:34:15.581Z,-0.22
2023-02-05T23:36:44.091Z,-0.26
2023-02-05T23:39:12.615Z,0.39
2023-02-05T23:41:41.216Z,0.99
2023-02-05T23:44:19.004Z,1.46
2023-02-05T23:46:49.019Z,1.86
2023-02-05T23:49:21.267Z,2.19
2023-02-05T23:51:54.874Z,2.46
2023-02-05T23:54:24.340Z,2.36
2023-02-05T23:56:52.795Z,1.54
2023-02-05T23:59:21.340Z,0.80
